• Join FlightAware (Why Join?)
  • Login
  • US Flag 
07:49PM EDT


 

Airport Tracker/Info


-or-


 

Live Flight TrackerFlight Track Log ✈ CTL309 ✈ 25-Apr-2013 ✈ KOSU - KHAO

Flight Track Log - Related Links

Times and Time Zones

All times are in EDT time to prevent confusion due to time zone crossing. See the CTL309 flight status page for this flight to view local times or setup timezone preferences in your user account.

Time Position Orientation Groundspeed Altitude Reporting Facility
EDT Latitude Longitude Course Direction KTS MPH feet Rate Location/Type
03:29AM 40.0742 -83.1172 242° Southwest 159 183 1,600  Level Indianapolis Center
03:30AM 40.0542 -83.1667 242° Southwest 149 171 2,200 480 Climbing Indianapolis Center
03:31AM 40.0422 -83.1908 237° Southwest 149 171 2,500 480 Climbing Indianapolis Center
03:31AM 40.0319 -83.2131 239° Southwest 153 176 2,700 600 Climbing Indianapolis Center
03:32AM 40.0186 -83.2389 236° Southwest 152 175 3,100 480 Climbing Indianapolis Center
03:32AM 40.0097 -83.2622 244° Southwest 154 177 3,200 480 Climbing Indianapolis Center
03:33AM 39.9964 -83.2878 236° Southwest 154 177 3,600 660 Climbing Indianapolis Center
03:33AM 39.9856 -83.3083 235° Southwest 153 176 3,900 600 Climbing Indianapolis Center
03:34AM 39.9719 -83.3328 234° Southwest 153 176 4,200 180 Climbing Indianapolis Center
03:34AM 39.9614 -83.3544 238° Southwest 157 181 4,100  Descending Indianapolis Center
03:35AM 39.9478 -83.3819 237° Southwest 156 180 4,200  Climbing Indianapolis Center
03:36AM 39.9233 -83.4317 237° Southwest 160 184 4,100  Descending Indianapolis Center
03:37AM 39.9000 -83.4814 239° Southwest 161 185 4,200  Climbing Indianapolis Center
03:38AM 39.8761 -83.5278 236° Southwest 159 183 4,100  Descending Indianapolis Center
03:39AM 39.8486 -83.5839 237° Southwest 158 182 4,200  Climbing Indianapolis Center
03:40AM 39.8167 -83.6439 235° Southwest 168 193 4,200 -60 Level Indianapolis Center
03:41AM 39.7992 -83.6808 238° Southwest 160 184 4,100 -120 Descending Indianapolis Center
03:41AM 39.7942 -83.6928 241° Southwest 161 185 4,100  Level Indianapolis Center
03:42AM 39.7792 -83.7231 237° Southwest 161 185 4,100  Level Indianapolis Center
03:43AM 39.7578 -83.7750 242° Southwest 162 186 4,100  Level Indianapolis Center
03:43AM 39.7486 -83.7983 243° Southwest 164 189 4,100  Level Indianapolis Center
03:44AM 39.7342 -83.8244 234° Southwest 161 185 4,100  Level Indianapolis Center
03:44AM 39.7242 -83.8439 236° Southwest 162 186 4,100 60 Level Indianapolis Center
03:45AM 39.7092 -83.8736 237° Southwest 161 185 4,200 60 Climbing Indianapolis Center
03:45AM 39.6994 -83.8922 236° Southwest 148 170 4,200  Level Indianapolis Center
03:46AM 39.6836 -83.9222 236° Southwest 161 185 4,200  Level Indianapolis Center
03:47AM 39.6600 -83.9717 238° Southwest 161 185 4,200 -60 Level Indianapolis Center
03:48AM 39.6317 -84.0186 232° Southwest 162 186 4,100  Descending Indianapolis Center
03:49AM 39.6069 -84.0686 237° Southwest 163 188 4,200  Climbing Indianapolis Center
03:50AM 39.5811 -84.1164 235° Southwest 162 186 4,200  Level Indianapolis Center
03:51AM 39.5556 -84.1608 233° Southwest 161 185 4,200  Level Indianapolis Center
03:53AM 39.5101 -84.2320 230° Southwest  Level FlightAware Approximate
04:00AM 39.3500 -84.5167 229° Southwest  Level FlightAware Approximate
04:01AM 39.3638 -84.5219 229° Southwest  Level Estimated
04:02AM 39.3638 -84.5219 229° Southwest  Level Estimated
04:03AM 39.3638 -84.5219 229° Southwest  Level Estimated
04:04AM 39.3638 -84.5219 229° Southwest  Level Estimated
04:05AM 39.3638 -84.5219 229° Southwest  Level Estimated
04:06AM 39.3638 -84.5219 229° Southwest  Level Estimated
04:07AM 39.3638 -84.5219 229° Southwest  Level Estimated
04:08AM 39.3638 -84.5219 229° Southwest  Level Estimated